sensor_id;sensor_type;location;lat;lon;timestamp;P1;P2;P0
74419;PMS5003;62855;50.718;-2.460;2023-04-24T00:01:05;16.34;13.69;
74419;PMS5003;62855;50.718;-2.460;2023-04-24T00:04:05;16.34;14.67;
74419;PMS5003;62855;50.718;-2.460;2023-04-24T00:07:05;15.43;13.69;
74419;PMS5003;62855;50.718;-2.460;2023-04-24T00:10:06;16.34;14.67;
74419;PMS5003;62855;50.718;-2.460;2023-04-24T00:13:06;13.61;14.67;
74419;PMS5003;62855;50.718;-2.460;2023-04-24T00:16:06;12.71;13.69;
74419;PMS5003;62855;50.718;-2.460;2023-04-24T00:19:06;13.61;13.69;
74419;PMS5003;62855;50.718;-2.460;2023-04-24T00:22:06;14.52;14.67;
74419;PMS5003;62855;50.718;-2.460;2023-04-24T00:25:05;15.43;15.65;
74419;PMS5003;62855;50.718;-2.460;2023-04-24T00:28:06;14.52;14.67;
74419;PMS5003;62855;50.718;-2.460;2023-04-24T00:31:06;15.43;14.67;
74419;PMS5003;62855;50.718;-2.460;2023-04-24T00:34:06;13.61;13.69;
74419;PMS5003;62855;50.718;-2.460;2023-04-24T00:37:06;13.61;13.69;
74419;PMS5003;62855;50.718;-2.460;2023-04-24T00:40:06;13.61;13.69;
74419;PMS5003;62855;50.718;-2.460;2023-04-24T00:43:06;13.61;13.69;
74419;PMS5003;62855;50.718;-2.460;2023-04-24T00:46:06;15.43;15.65;
74419;PMS5003;62855;50.718;-2.460;2023-04-24T00:49:05;14.52;15.65;
74419;PMS5003;62855;50.718;-2.460;2023-04-24T00:52:05;13.61;13.69;
74419;PMS5003;62855;50.718;-2.460;2023-04-24T00:55:05;12.71;12.71;
74419;PMS5003;62855;50.718;-2.460;2023-04-24T00:58:06;10.89;11.73;
74419;PMS5003;62855;50.718;-2.460;2023-04-24T01:01:05;12.71;12.71;
74419;PMS5003;62855;50.718;-2.460;2023-04-24T01:04:05;13.61;12.71;
74419;PMS5003;62855;50.718;-2.460;2023-04-24T01:07:05;13.61;12.71;
74419;PMS5003;62855;50.718;-2.460;2023-04-24T01:10:06;11.80;10.76;
74419;PMS5003;62855;50.718;-2.460;2023-04-24T01:13:05;12.71;11.73;
74419;PMS5003;62855;50.718;-2.460;2023-04-24T01:16:05;11.80;9.78;
74419;PMS5003;62855;50.718;-2.460;2023-04-24T01:19:05;11.80;10.76;
74419;PMS5003;62855;50.718;-2.460;2023-04-24T01:22:08;10.89;9.78;
74419;PMS5003;62855;50.718;-2.460;2023-04-24T01:25:06;11.80;10.76;
74419;PMS5003;62855;50.718;-2.460;2023-04-24T01:28:06;12.71;11.73;
74419;PMS5003;62855;50.718;-2.460;2023-04-24T01:31:06;11.80;10.76;
74419;PMS5003;62855;50.718;-2.460;2023-04-24T01:34:06;9.98;10.76;
74419;PMS5003;62855;50.718;-2.460;2023-04-24T01:37:05;9.98;10.76;
74419;PMS5003;62855;50.718;-2.460;2023-04-24T01:40:06;9.98;10.76;
74419;PMS5003;62855;50.718;-2.460;2023-04-24T01:43:06;9.98;10.76;
74419;PMS5003;62855;50.718;-2.460;2023-04-24T01:46:06;10.89;11.73;
74419;PMS5003;62855;50.718;-2.460;2023-04-24T01:49:05;11.80;12.71;
74419;PMS5003;62855;50.718;-2.460;2023-04-24T01:52:05;11.80;12.71;
74419;PMS5003;62855;50.718;-2.460;2023-04-24T01:55:07;12.71;13.69;
74419;PMS5003;62855;50.718;-2.460;2023-04-24T01:58:05;12.71;13.69;
74419;PMS5003;62855;50.718;-2.460;2023-04-24T02:01:06;13.61;14.67;
74419;PMS5003;62855;50.718;-2.460;2023-04-24T02:04:05;14.52;15.65;
74419;PMS5003;62855;50.718;-2.460;2023-04-24T02:07:06;16.34;17.60;
74419;PMS5003;62855;50.718;-2.460;2023-04-24T02:10:06;16.34;17.60;
74419;PMS5003;62855;50.718;-2.460;2023-04-24T02:13:05;19.06;17.60;
74419;PMS5003;62855;50.718;-2.460;2023-04-24T02:16:05;19.06;16.62;
74419;PMS5003;62855;50.718;-2.460;2023-04-24T02:19:06;19.06;14.67;
74419;PMS5003;62855;50.718;-2.460;2023-04-24T02:22:06;19.97;14.67;
74419;PMS5003;62855;50.718;-2.460;2023-04-24T02:25:06;19.06;13.69;
74419;PMS5003;62855;50.718;-2.460;2023-04-24T02:28:06;16.34;12.71;
74419;PMS5003;62855;50.718;-2.460;2023-04-24T02:31:06;17.24;12.71;
74419;PMS5003;62855;50.718;-2.460;2023-04-24T02:34:06;16.34;11.73;
74419;PMS5003;62855;50.718;-2.460;2023-04-24T02:37:05;16.34;12.71;
74419;PMS5003;62855;50.718;-2.460;2023-04-24T02:40:06;14.52;11.73;
74419;PMS5003;62855;50.718;-2.460;2023-04-24T02:43:05;14.52;10.76;
74419;PMS5003;62855;50.718;-2.460;2023-04-24T02:46:06;14.52;10.76;
74419;PMS5003;62855;50.718;-2.460;2023-04-24T02:49:06;12.71;10.76;
74419;PMS5003;62855;50.718;-2.460;2023-04-24T02:52:05;14.52;12.71;
74419;PMS5003;62855;50.718;-2.460;2023-04-24T02:55:06;12.71;11.73;
74419;PMS5003;62855;50.718;-2.460;2023-04-24T02:58:05;16.34;12.71;
74419;PMS5003;62855;50.718;-2.460;2023-04-24T03:01:06;14.52;11.73;
74419;PMS5003;62855;50.718;-2.460;2023-04-24T03:04:06;14.52;11.73;
74419;PMS5003;62855;50.718;-2.460;2023-04-24T03:07:06;14.52;11.73;
74419;PMS5003;62855;50.718;-2.460;2023-04-24T03:10:06;14.52;11.73;
74419;PMS5003;62855;50.718;-2.460;2023-04-24T03:13:06;14.52;12.71;
74419;PMS5003;62855;50.718;-2.460;2023-04-24T03:16:06;16.34;14.67;
74419;PMS5003;62855;50.718;-2.460;2023-04-24T03:19:05;15.43;13.69;
74419;PMS5003;62855;50.718;-2.460;2023-04-24T03:22:05;15.43;13.69;
74419;PMS5003;62855;50.718;-2.460;2023-04-24T03:25:06;16.34;14.67;
74419;PMS5003;62855;50.718;-2.460;2023-04-24T03:28:05;12.71;13.69;
74419;PMS5003;62855;50.718;-2.460;2023-04-24T03:31:05;11.80;12.71;
74419;PMS5003;62855;50.718;-2.460;2023-04-24T03:34:06;11.80;12.71;
74419;PMS5003;62855;50.718;-2.460;2023-04-24T03:37:05;11.80;12.71;
74419;PMS5003;62855;50.718;-2.460;2023-04-24T03:40:06;12.71;13.69;
74419;PMS5003;62855;50.718;-2.460;2023-04-24T03:43:05;11.80;12.71;
74419;PMS5003;62855;50.718;-2.460;2023-04-24T03:46:05;11.80;12.71;
74419;PMS5003;62855;50.718;-2.460;2023-04-24T03:49:06;10.89;11.73;
74419;PMS5003;62855;50.718;-2.460;2023-04-24T03:52:06;10.89;10.76;
74419;PMS5003;62855;50.718;-2.460;2023-04-24T03:55:06;10.89;11.73;
74419;PMS5003;62855;50.718;-2.460;2023-04-24T03:58:05;11.80;11.73;
74419;PMS5003;62855;50.718;-2.460;2023-04-24T04:01:05;12.71;12.71;
74419;PMS5003;62855;50.718;-2.460;2023-04-24T04:04:05;12.71;12.71;
74419;PMS5003;62855;50.718;-2.460;2023-04-24T04:07:05;13.61;12.71;
74419;PMS5003;62855;50.718;-2.460;2023-04-24T04:10:06;12.71;11.73;
74419;PMS5003;62855;50.718;-2.460;2023-04-24T04:13:06;12.71;11.73;
74419;PMS5003;62855;50.718;-2.460;2023-04-24T04:16:06;11.80;11.73;
74419;PMS5003;62855;50.718;-2.460;2023-04-24T04:19:05;12.71;12.71;
74419;PMS5003;62855;50.718;-2.460;2023-04-24T04:22:05;11.80;10.76;
74419;PMS5003;62855;50.718;-2.460;2023-04-24T04:25:06;11.80;11.73;
74419;PMS5003;62855;50.718;-2.460;2023-04-24T04:28:06;10.89;11.73;
74419;PMS5003;62855;50.718;-2.460;2023-04-24T04:31:06;11.80;11.73;
74419;PMS5003;62855;50.718;-2.460;2023-04-24T04:34:06;11.80;11.73;
74419;PMS5003;62855;50.718;-2.460;2023-04-24T04:37:05;11.80;12.71;
74419;PMS5003;62855;50.718;-2.460;2023-04-24T04:43:07;11.80;12.71;
74419;PMS5003;62855;50.718;-2.460;2023-04-24T04:44:05;11.80;10.76;
74419;PMS5003;62855;50.718;-2.460;2023-04-24T04:47:05;10.89;10.76;
74419;PMS5003;62855;50.718;-2.460;2023-04-24T04:50:06;11.80;11.73;
74419;PMS5003;62855;50.718;-2.460;2023-04-24T04:53:05;11.80;10.76;
74419;PMS5003;62855;50.718;-2.460;2023-04-24T04:56:05;13.61;13.69;
74419;PMS5003;62855;50.718;-2.460;2023-04-24T04:59:05;12.71;12.71;
74419;PMS5003;62855;50.718;-2.460;2023-04-24T05:02:05;12.71;13.69;
74419;PMS5003;62855;50.718;-2.460;2023-04-24T05:05:06;11.80;12.71;
74419;PMS5003;62855;50.718;-2.460;2023-04-24T05:08:06;12.71;12.71;
74419;PMS5003;62855;50.718;-2.460;2023-04-24T05:11:05;13.61;13.69;
74419;PMS5003;62855;50.718;-2.460;2023-04-24T05:14:06;12.71;12.71;
74419;PMS5003;62855;50.718;-2.460;2023-04-24T05:17:06;14.52;14.67;
74419;PMS5003;62855;50.718;-2.460;2023-04-24T05:20:06;14.52;14.67;
74419;PMS5003;62855;50.718;-2.460;2023-04-24T05:23:06;16.34;15.65;
74419;PMS5003;62855;50.718;-2.460;2023-04-24T05:26:05;14.52;14.67;
74419;PMS5003;62855;50.718;-2.460;2023-04-24T05:29:05;14.52;13.69;
74419;PMS5003;62855;50.718;-2.460;2023-04-24T05:32:05;15.43;14.67;
74419;PMS5003;62855;50.718;-2.460;2023-04-24T05:35:05;15.43;14.67;
74419;PMS5003;62855;50.718;-2.460;2023-04-24T05:38:06;14.52;13.69;
74419;PMS5003;62855;50.718;-2.460;2023-04-24T05:41:06;13.61;13.69;
74419;PMS5003;62855;50.718;-2.460;2023-04-24T05:44:06;13.61;13.69;
74419;PMS5003;62855;50.718;-2.460;2023-04-24T05:47:05;13.61;12.71;
74419;PMS5003;62855;50.718;-2.460;2023-04-24T05:50:05;13.61;11.73;
74419;PMS5003;62855;50.718;-2.460;2023-04-24T05:53:05;12.71;12.71;
74419;PMS5003;62855;50.718;-2.460;2023-04-24T05:56:05;13.61;12.71;
74419;PMS5003;62855;50.718;-2.460;2023-04-24T05:59:05;14.52;12.71;
74419;PMS5003;62855;50.718;-2.460;2023-04-24T06:02:06;15.43;12.71;
74419;PMS5003;62855;50.718;-2.460;2023-04-24T06:05:05;16.34;13.69;
74419;PMS5003;62855;50.718;-2.460;2023-04-24T06:08:06;17.24;14.67;
74419;PMS5003;62855;50.718;-2.460;2023-04-24T06:11:06;17.24;14.67;
74419;PMS5003;62855;50.718;-2.460;2023-04-24T06:14:25;16.34;13.69;
74419;PMS5003;62855;50.718;-2.460;2023-04-24T06:18:06;16.34;14.67;
74419;PMS5003;62855;50.718;-2.460;2023-04-24T06:21:06;14.52;13.69;
74419;PMS5003;62855;50.718;-2.460;2023-04-24T06:24:05;15.43;13.69;
74419;PMS5003;62855;50.718;-2.460;2023-04-24T06:27:05;14.52;13.69;
74419;PMS5003;62855;50.718;-2.460;2023-04-24T06:30:06;14.52;14.67;
74419;PMS5003;62855;50.718;-2.460;2023-04-24T06:33:06;14.52;14.67;
74419;PMS5003;62855;50.718;-2.460;2023-04-24T06:36:06;13.61;14.67;
74419;PMS5003;62855;50.718;-2.460;2023-04-24T06:39:05;14.52;14.67;
74419;PMS5003;62855;50.718;-2.460;2023-04-24T06:42:06;15.43;14.67;
74419;PMS5003;62855;50.718;-2.460;2023-04-24T06:45:05;15.43;14.67;
74419;PMS5003;62855;50.718;-2.460;2023-04-24T06:48:06;16.34;15.65;
74419;PMS5003;62855;50.718;-2.460;2023-04-24T06:51:05;16.34;15.65;
74419;PMS5003;62855;50.718;-2.460;2023-04-24T06:54:05;16.34;15.65;
74419;PMS5003;62855;50.718;-2.460;2023-04-24T06:57:06;16.34;15.65;
74419;PMS5003;62855;50.718;-2.460;2023-04-24T07:00:07;14.52;13.69;
74419;PMS5003;62855;50.718;-2.460;2023-04-24T07:03:05;14.52;13.69;
74419;PMS5003;62855;50.718;-2.460;2023-04-24T07:06:06;13.61;12.71;
74419;PMS5003;62855;50.718;-2.460;2023-04-24T07:09:05;12.71;11.73;
74419;PMS5003;62855;50.718;-2.460;2023-04-24T07:12:06;11.80;11.73;
74419;PMS5003;62855;50.718;-2.460;2023-04-24T07:15:06;11.80;11.73;
74419;PMS5003;62855;50.718;-2.460;2023-04-24T07:18:05;11.80;11.73;
74419;PMS5003;62855;50.718;-2.460;2023-04-24T07:21:06;9.98;10.76;
74419;PMS5003;62855;50.718;-2.460;2023-04-24T07:24:06;10.89;11.73;
74419;PMS5003;62855;50.718;-2.460;2023-04-24T07:27:05;10.89;11.73;
74419;PMS5003;62855;50.718;-2.460;2023-04-24T07:30:06;11.80;12.71;
74419;PMS5003;62855;50.718;-2.460;2023-04-24T07:33:06;11.80;12.71;
74419;PMS5003;62855;50.718;-2.460;2023-04-24T07:36:06;11.80;12.71;
74419;PMS5003;62855;50.718;-2.460;2023-04-24T07:39:06;11.80;12.71;
74419;PMS5003;62855;50.718;-2.460;2023-04-24T07:42:05;11.80;12.71;
74419;PMS5003;62855;50.718;-2.460;2023-04-24T07:45:06;11.80;12.71;
74419;PMS5003;62855;50.718;-2.460;2023-04-24T07:48:05;11.80;12.71;
74419;PMS5003;62855;50.718;-2.460;2023-04-24T07:51:05;11.80;12.71;
74419;PMS5003;62855;50.718;-2.460;2023-04-24T07:54:06;11.80;12.71;
74419;PMS5003;62855;50.718;-2.460;2023-04-24T07:57:06;13.61;14.67;
74419;PMS5003;62855;50.718;-2.460;2023-04-24T08:00:06;13.61;14.67;
74419;PMS5003;62855;50.718;-2.460;2023-04-24T08:03:05;13.61;14.67;
74419;PMS5003;62855;50.718;-2.460;2023-04-24T08:06:06;12.71;13.69;
74419;PMS5003;62855;50.718;-2.460;2023-04-24T08:09:06;14.52;14.67;
74419;PMS5003;62855;50.718;-2.460;2023-04-24T08:13:05;14.52;14.67;
74419;PMS5003;62855;50.718;-2.460;2023-04-24T08:16:05;16.34;16.62;
74419;PMS5003;62855;50.718;-2.460;2023-04-24T08:19:05;17.24;17.60;
74419;PMS5003;62855;50.718;-2.460;2023-04-24T08:22:06;19.97;19.56;
74419;PMS5003;62855;50.718;-2.460;2023-04-24T08:25:06;19.06;18.58;
74419;PMS5003;62855;50.718;-2.460;2023-04-24T08:28:05;23.60;21.51;
74419;PMS5003;62855;50.718;-2.460;2023-04-24T08:31:06;24.51;21.51;
74419;PMS5003;62855;50.718;-2.460;2023-04-24T08:34:06;22.69;17.60;
74419;PMS5003;62855;50.718;-2.460;2023-04-24T08:37:05;19.97;16.62;
74419;PMS5003;62855;50.718;-2.460;2023-04-24T08:40:07;18.15;14.67;
74419;PMS5003;62855;50.718;-2.460;2023-04-24T08:43:05;19.06;16.62;
74419;PMS5003;62855;50.718;-2.460;2023-04-24T08:46:05;18.15;15.65;
74419;PMS5003;62855;50.718;-2.460;2023-04-24T08:49:06;18.15;15.65;
74419;PMS5003;62855;50.718;-2.460;2023-04-24T08:52:06;17.24;16.62;
74419;PMS5003;62855;50.718;-2.460;2023-04-24T08:55:06;17.24;16.62;
74419;PMS5003;62855;50.718;-2.460;2023-04-24T08:58:05;17.24;17.60;
74419;PMS5003;62855;50.718;-2.460;2023-04-24T09:01:05;18.15;17.60;
74419;PMS5003;62855;50.718;-2.460;2023-04-24T09:04:06;17.24;16.62;
74419;PMS5003;62855;50.718;-2.460;2023-04-24T09:07:06;16.34;15.65;
74419;PMS5003;62855;50.718;-2.460;2023-04-24T09:10:06;16.34;16.62;
74419;PMS5003;62855;50.718;-2.460;2023-04-24T09:13:06;16.34;15.65;
74419;PMS5003;62855;50.718;-2.460;2023-04-24T09:16:05;16.34;15.65;
74419;PMS5003;62855;50.718;-2.460;2023-04-24T09:19:05;15.43;14.67;
74419;PMS5003;62855;50.718;-2.460;2023-04-24T09:22:05;14.52;14.67;
74419;PMS5003;62855;50.718;-2.460;2023-04-24T09:25:06;14.52;13.69;
74419;PMS5003;62855;50.718;-2.460;2023-04-24T09:28:05;13.61;13.69;
74419;PMS5003;62855;50.718;-2.460;2023-04-24T09:31:06;13.61;13.69;
74419;PMS5003;62855;50.718;-2.460;2023-04-24T09:34:06;13.61;13.69;
74419;PMS5003;62855;50.718;-2.460;2023-04-24T09:37:06;14.52;14.67;
74419;PMS5003;62855;50.718;-2.460;2023-04-24T09:40:10;14.52;14.67;
74419;PMS5003;62855;50.718;-2.460;2023-04-24T09:43:09;13.61;14.67;
74419;PMS5003;62855;50.718;-2.460;2023-04-24T09:46:06;14.52;14.67;
74419;PMS5003;62855;50.718;-2.460;2023-04-24T09:49:08;15.43;16.62;
74419;PMS5003;62855;50.718;-2.460;2023-04-24T09:52:06;16.34;16.62;
74419;PMS5003;62855;50.718;-2.460;2023-04-24T09:55:10;15.43;16.62;
74419;PMS5003;62855;50.718;-2.460;2023-04-24T09:58:07;16.34;16.62;
74419;PMS5003;62855;50.718;-2.460;2023-04-24T10:01:05;16.34;16.62;
74419;PMS5003;62855;50.718;-2.460;2023-04-24T10:04:05;18.15;18.58;
74419;PMS5003;62855;50.718;-2.460;2023-04-24T10:07:05;17.24;18.58;
74419;PMS5003;62855;50.718;-2.460;2023-04-24T10:10:06;17.24;18.58;
74419;PMS5003;62855;50.718;-2.460;2023-04-24T10:13:05;17.24;18.58;
74419;PMS5003;62855;50.718;-2.460;2023-04-24T10:16:05;18.15;18.58;
74419;PMS5003;62855;50.718;-2.460;2023-04-24T10:19:05;16.34;16.62;
74419;PMS5003;62855;50.718;-2.460;2023-04-24T10:22:06;15.43;15.65;
74419;PMS5003;62855;50.718;-2.460;2023-04-24T10:25:06;15.43;15.65;
74419;PMS5003;62855;50.718;-2.460;2023-04-24T10:28:06;14.52;15.65;
74419;PMS5003;62855;50.718;-2.460;2023-04-24T10:31:06;14.52;15.65;
74419;PMS5003;62855;50.718;-2.460;2023-04-24T10:34:06;13.61;13.69;
74419;PMS5003;62855;50.718;-2.460;2023-04-24T10:37:05;13.61;13.69;
74419;PMS5003;62855;50.718;-2.460;2023-04-24T10:40:06;12.71;12.71;
74419;PMS5003;62855;50.718;-2.460;2023-04-24T10:43:06;13.61;13.69;
74419;PMS5003;62855;50.718;-2.460;2023-04-24T10:46:05;13.61;13.69;
74419;PMS5003;62855;50.718;-2.460;2023-04-24T10:49:06;13.61;13.69;
74419;PMS5003;62855;50.718;-2.460;2023-04-24T10:52:06;14.52;13.69;
74419;PMS5003;62855;50.718;-2.460;2023-04-24T10:55:06;14.52;14.67;
74419;PMS5003;62855;50.718;-2.460;2023-04-24T10:58:05;15.43;15.65;
74419;PMS5003;62855;50.718;-2.460;2023-04-24T11:01:06;15.43;14.67;
74419;PMS5003;62855;50.718;-2.460;2023-04-24T11:04:06;15.43;14.67;
74419;PMS5003;62855;50.718;-2.460;2023-04-24T11:07:06;15.43;13.69;
74419;PMS5003;62855;50.718;-2.460;2023-04-24T11:10:06;15.43;14.67;
74419;PMS5003;62855;50.718;-2.460;2023-04-24T11:13:06;15.43;14.67;
74419;PMS5003;62855;50.718;-2.460;2023-04-24T11:16:13;15.43;15.65;
74419;PMS5003;62855;50.718;-2.460;2023-04-24T11:19:06;16.34;16.62;
74419;PMS5003;62855;50.718;-2.460;2023-04-24T11:22:13;16.34;16.62;
74419;PMS5003;62855;50.718;-2.460;2023-04-24T11:25:06;16.34;16.62;
74419;PMS5003;62855;50.718;-2.460;2023-04-24T11:28:05;16.34;15.65;
74419;PMS5003;62855;50.718;-2.460;2023-04-24T11:34:07;20.87;20.53;
74419;PMS5003;62855;50.718;-2.460;2023-04-24T11:37:06;19.06;18.58;
74419;PMS5003;62855;50.718;-2.460;2023-04-24T11:40:07;20.87;19.56;
74419;PMS5003;62855;50.718;-2.460;2023-04-24T11:43:06;20.87;17.60;
74419;PMS5003;62855;50.718;-2.460;2023-04-24T11:46:06;19.06;15.65;
74419;PMS5003;62855;50.718;-2.460;2023-04-24T11:49:06;19.06;15.65;
74419;PMS5003;62855;50.718;-2.460;2023-04-24T11:52:05;19.06;15.65;
74419;PMS5003;62855;50.718;-2.460;2023-04-24T11:55:06;18.15;15.65;
74419;PMS5003;62855;50.718;-2.460;2023-04-24T11:58:06;17.24;14.67;
74419;PMS5003;62855;50.718;-2.460;2023-04-24T12:01:06;16.34;13.69;
74419;PMS5003;62855;50.718;-2.460;2023-04-24T12:04:06;16.34;14.67;
74419;PMS5003;62855;50.718;-2.460;2023-04-24T12:07:06;15.43;15.65;
74419;PMS5003;62855;50.718;-2.460;2023-04-24T12:10:05;18.15;16.62;
74419;PMS5003;62855;50.718;-2.460;2023-04-24T12:13:05;22.69;20.53;
74419;PMS5003;62855;50.718;-2.460;2023-04-24T12:16:05;21.78;18.58;
74419;PMS5003;62855;50.718;-2.460;2023-04-24T12:19:05;21.78;18.58;
74419;PMS5003;62855;50.718;-2.460;2023-04-24T12:22:05;19.06;16.62;
74419;PMS5003;62855;50.718;-2.460;2023-04-24T12:25:06;18.15;16.62;
74419;PMS5003;62855;50.718;-2.460;2023-04-24T12:28:10;16.34;14.67;
74419;PMS5003;62855;50.718;-2.460;2023-04-24T12:31:06;16.34;14.67;
74419;PMS5003;62855;50.718;-2.460;2023-04-24T12:37:09;11.80;10.76;
74419;PMS5003;62855;50.718;-2.460;2023-04-24T12:40:06;10.89;10.76;
74419;PMS5003;62855;50.718;-2.460;2023-04-24T12:43:12;10.89;9.78;
74419;PMS5003;62855;50.718;-2.460;2023-04-24T12:46:05;10.89;10.76;
74419;PMS5003;62855;50.718;-2.460;2023-04-24T12:49:05;10.89;10.76;
74419;PMS5003;62855;50.718;-2.460;2023-04-24T12:52:05;10.89;10.76;
74419;PMS5003;62855;50.718;-2.460;2023-04-24T12:55:06;10.89;11.73;
74419;PMS5003;62855;50.718;-2.460;2023-04-24T12:58:06;10.89;11.73;
74419;PMS5003;62855;50.718;-2.460;2023-04-24T13:01:05;10.89;11.73;
74419;PMS5003;62855;50.718;-2.460;2023-04-24T13:04:05;11.80;11.73;
74419;PMS5003;62855;50.718;-2.460;2023-04-24T13:07:05;12.71;12.71;
74419;PMS5003;62855;50.718;-2.460;2023-04-24T13:10:06;9.98;10.76;
74419;PMS5003;62855;50.718;-2.460;2023-04-24T13:13:06;10.89;11.73;
74419;PMS5003;62855;50.718;-2.460;2023-04-24T13:16:06;11.80;11.73;
74419;PMS5003;62855;50.718;-2.460;2023-04-24T13:19:06;11.80;11.73;
74419;PMS5003;62855;50.718;-2.460;2023-04-24T13:22:06;11.80;12.71;
74419;PMS5003;62855;50.718;-2.460;2023-04-24T13:25:06;10.89;10.76;
74419;PMS5003;62855;50.718;-2.460;2023-04-24T13:28:05;11.80;11.73;
74419;PMS5003;62855;50.718;-2.460;2023-04-24T13:31:05;11.80;11.73;
74419;PMS5003;62855;50.718;-2.460;2023-04-24T13:34:05;12.71;12.71;
74419;PMS5003;62855;50.718;-2.460;2023-04-24T13:37:06;11.80;11.73;
74419;PMS5003;62855;50.718;-2.460;2023-04-24T13:40:06;13.61;12.71;
74419;PMS5003;62855;50.718;-2.460;2023-04-24T13:43:06;12.71;10.76;
74419;PMS5003;62855;50.718;-2.460;2023-04-24T13:46:06;12.71;11.73;
74419;PMS5003;62855;50.718;-2.460;2023-04-24T13:49:06;11.80;10.76;
74419;PMS5003;62855;50.718;-2.460;2023-04-24T13:52:05;12.71;11.73;
74419;PMS5003;62855;50.718;-2.460;2023-04-24T13:55:06;13.61;12.71;
74419;PMS5003;62855;50.718;-2.460;2023-04-24T13:58:05;14.52;13.69;
74419;PMS5003;62855;50.718;-2.460;2023-04-24T14:01:06;14.52;13.69;
74419;PMS5003;62855;50.718;-2.460;2023-04-24T14:04:06;16.34;15.65;
74419;PMS5003;62855;50.718;-2.460;2023-04-24T14:07:06;15.43;13.69;
74419;PMS5003;62855;50.718;-2.460;2023-04-24T14:10:06;16.34;15.65;
74419;PMS5003;62855;50.718;-2.460;2023-04-24T14:13:05;16.34;15.65;
74419;PMS5003;62855;50.718;-2.460;2023-04-24T14:16:05;15.43;15.65;
74419;PMS5003;62855;50.718;-2.460;2023-04-24T14:19:06;16.34;16.62;
74419;PMS5003;62855;50.718;-2.460;2023-04-24T14:22:06;17.24;18.58;
74419;PMS5003;62855;50.718;-2.460;2023-04-24T14:25:05;18.15;18.58;
74419;PMS5003;62855;50.718;-2.460;2023-04-24T14:28:06;19.97;19.56;
74419;PMS5003;62855;50.718;-2.460;2023-04-24T14:31:06;20.87;20.53;
74419;PMS5003;62855;50.718;-2.460;2023-04-24T14:34:05;19.97;20.53;
74419;PMS5003;62855;50.718;-2.460;2023-04-24T14:37:06;20.87;19.56;
74419;PMS5003;62855;50.718;-2.460;2023-04-24T14:40:06;19.97;16.62;
74419;PMS5003;62855;50.718;-2.460;2023-04-24T14:43:06;15.43;11.73;
74419;PMS5003;62855;50.718;-2.460;2023-04-24T14:46:05;15.43;12.71;
74419;PMS5003;62855;50.718;-2.460;2023-04-24T14:49:06;15.43;12.71;
74419;PMS5003;62855;50.718;-2.460;2023-04-24T14:52:05;16.34;12.71;
74419;PMS5003;62855;50.718;-2.460;2023-04-24T14:55:05;13.61;11.73;
74419;PMS5003;62855;50.718;-2.460;2023-04-24T14:58:05;14.52;12.71;
74419;PMS5003;62855;50.718;-2.460;2023-04-24T15:01:05;12.71;11.73;
74419;PMS5003;62855;50.718;-2.460;2023-04-24T15:04:05;13.61;11.73;
74419;PMS5003;62855;50.718;-2.460;2023-04-24T15:07:06;14.52;12.71;
74419;PMS5003;62855;50.718;-2.460;2023-04-24T15:10:06;13.61;11.73;
74419;PMS5003;62855;50.718;-2.460;2023-04-24T15:13:06;12.71;11.73;
74419;PMS5003;62855;50.718;-2.460;2023-04-24T15:16:06;13.61;11.73;
74419;PMS5003;62855;50.718;-2.460;2023-04-24T15:19:06;13.61;12.71;
74419;PMS5003;62855;50.718;-2.460;2023-04-24T15:22:06;12.71;12.71;
74419;PMS5003;62855;50.718;-2.460;2023-04-24T15:25:06;13.61;12.71;
74419;PMS5003;62855;50.718;-2.460;2023-04-24T15:28:06;15.43;14.67;
74419;PMS5003;62855;50.718;-2.460;2023-04-24T15:31:05;16.34;15.65;
74419;PMS5003;62855;50.718;-2.460;2023-04-24T15:34:05;16.34;15.65;
74419;PMS5003;62855;50.718;-2.460;2023-04-24T15:37:05;15.43;16.62;
74419;PMS5003;62855;50.718;-2.460;2023-04-24T15:40:06;15.43;15.65;
74419;PMS5003;62855;50.718;-2.460;2023-04-24T15:43:06;16.34;17.60;
74419;PMS5003;62855;50.718;-2.460;2023-04-24T15:46:05;19.06;18.58;
74419;PMS5003;62855;50.718;-2.460;2023-04-24T15:49:05;22.69;20.53;
74419;PMS5003;62855;50.718;-2.460;2023-04-24T15:52:05;24.51;19.56;
74419;PMS5003;62855;50.718;-2.460;2023-04-24T15:55:06;23.60;18.58;
74419;PMS5003;62855;50.718;-2.460;2023-04-24T15:58:06;23.60;18.58;
74419;PMS5003;62855;50.718;-2.460;2023-04-24T16:01:06;22.69;19.56;
74419;PMS5003;62855;50.718;-2.460;2023-04-24T16:04:05;21.78;17.60;
74419;PMS5003;62855;50.718;-2.460;2023-04-24T16:07:05;19.97;15.65;
74419;PMS5003;62855;50.718;-2.460;2023-04-24T16:10:06;16.34;12.71;
74419;PMS5003;62855;50.718;-2.460;2023-04-24T16:13:06;16.34;11.73;
74419;PMS5003;62855;50.718;-2.460;2023-04-24T16:16:06;18.15;13.69;
74419;PMS5003;62855;50.718;-2.460;2023-04-24T16:19:05;17.24;13.69;
74419;PMS5003;62855;50.718;-2.460;2023-04-24T16:22:05;18.15;14.67;
74419;PMS5003;62855;50.718;-2.460;2023-04-24T16:25:05;17.24;14.67;
74419;PMS5003;62855;50.718;-2.460;2023-04-24T16:28:05;17.24;13.69;
74419;PMS5003;62855;50.718;-2.460;2023-04-24T16:31:06;15.43;13.69;
74419;PMS5003;62855;50.718;-2.460;2023-04-24T16:34:06;15.43;13.69;
74419;PMS5003;62855;50.718;-2.460;2023-04-24T16:37:06;15.43;13.69;
74419;PMS5003;62855;50.718;-2.460;2023-04-24T16:40:06;14.52;13.69;
74419;PMS5003;62855;50.718;-2.460;2023-04-24T16:43:06;13.61;12.71;
74419;PMS5003;62855;50.718;-2.460;2023-04-24T16:46:06;10.89;11.73;
74419;PMS5003;62855;50.718;-2.460;2023-04-24T16:49:05;10.89;11.73;
74419;PMS5003;62855;50.718;-2.460;2023-04-24T16:52:06;10.89;11.73;
74419;PMS5003;62855;50.718;-2.460;2023-04-24T16:55:06;9.98;10.76;
74419;PMS5003;62855;50.718;-2.460;2023-04-24T16:58:05;10.89;10.76;
74419;PMS5003;62855;50.718;-2.460;2023-04-24T17:01:05;9.98;9.78;
74419;PMS5003;62855;50.718;-2.460;2023-04-24T17:04:06;9.98;10.76;
74419;PMS5003;62855;50.718;-2.460;2023-04-24T17:07:05;9.98;10.76;
74419;PMS5003;62855;50.718;-2.460;2023-04-24T17:10:06;11.80;11.73;
74419;PMS5003;62855;50.718;-2.460;2023-04-24T17:13:06;10.89;10.76;
74419;PMS5003;62855;50.718;-2.460;2023-04-24T17:16:05;12.71;12.71;
74419;PMS5003;62855;50.718;-2.460;2023-04-24T17:19:05;10.89;11.73;
74419;PMS5003;62855;50.718;-2.460;2023-04-24T17:22:06;10.89;11.73;
74419;PMS5003;62855;50.718;-2.460;2023-04-24T17:25:05;13.61;13.69;
74419;PMS5003;62855;50.718;-2.460;2023-04-24T17:28:06;12.71;13.69;
74419;PMS5003;62855;50.718;-2.460;2023-04-24T17:31:05;14.52;13.69;
74419;PMS5003;62855;50.718;-2.460;2023-04-24T17:34:06;13.61;12.71;
74419;PMS5003;62855;50.718;-2.460;2023-04-24T17:37:06;14.52;13.69;
74419;PMS5003;62855;50.718;-2.460;2023-04-24T17:40:06;13.61;13.69;
74419;PMS5003;62855;50.718;-2.460;2023-04-24T17:43:06;13.61;12.71;
74419;PMS5003;62855;50.718;-2.460;2023-04-24T17:46:06;13.61;13.69;
74419;PMS5003;62855;50.718;-2.460;2023-04-24T17:49:05;13.61;13.69;
74419;PMS5003;62855;50.718;-2.460;2023-04-24T17:52:06;13.61;13.69;
74419;PMS5003;62855;50.718;-2.460;2023-04-24T17:55:06;14.52;14.67;
74419;PMS5003;62855;50.718;-2.460;2023-04-24T17:58:06;14.52;13.69;